Time;durP1;ratioP1;P1;durP2;ratioP2;P2;SDS_P1;SDS_P2;PMS_P1;PMS_P2;Temp;Humidity;BMP_temperature;BMP_pressure;BME280_temperature;BME280_humidity;BME280_pressure;Samples;Min_cycle;Max_cycle;Signal;HPM_P1;HPM_P2
2022/03/20 00:01:59;;;;;;;3.53;2.95;;;;;;;;;;5091827;28;20171;-42
2022/03/20 00:04:25;;;;;;;4.38;2.80;;;;;;;;;;5091070;28;20039;-46
2022/03/20 00:06:51;;;;;;;5.05;2.88;;;;;;;;;;5091620;28;20095;-44
2022/03/20 00:09:17;;;;;;;3.58;2.53;;;;;;;;;;5090783;28;20032;-44
2022/03/20 00:11:43;;;;;;;4.53;2.60;;;;;;;;;;5091601;28;20496;-42
2022/03/20 00:14:09;;;;;;;4.20;3.00;;;;;;;;;;5090641;28;20108;-50
2022/03/20 00:16:35;;;;;;;4.35;2.97;;;;;;;;;;5091633;28;20052;-46
2022/03/20 00:19:02;;;;;;;4.70;2.85;;;;;;;;;;5091671;28;20028;-45
2022/03/20 00:21:28;;;;;;;4.65;3.00;;;;;;;;;;5090768;28;20020;-45
2022/03/20 00:23:54;;;;;;;4.45;3.35;;;;;;;;;;5091964;28;20024;-45
2022/03/20 00:26:21;;;;;;;3.92;3.05;;;;;;;;;;5090973;28;20105;-42
2022/03/20 00:28:47;;;;;;;3.90;3.03;;;;;;;;;;5091628;28;20446;-42
2022/03/20 00:31:13;;;;;;;4.07;2.65;;;;;;;;;;5090950;28;20025;-42
2022/03/20 00:33:39;;;;;;;5.82;3.28;;;;;;;;;;5073585;28;20020;-43
2022/03/20 00:36:05;;;;;;;5.45;3.05;;;;;;;;;;5091825;28;20425;-42
2022/03/20 00:38:31;;;;;;;4.15;2.90;;;;;;;;;;5090921;28;20032;-42
2022/03/20 00:40:58;;;;;;;3.95;3.08;;;;;;;;;;5091299;28;20066;-42
2022/03/20 00:43:24;;;;;;;4.18;2.83;;;;;;;;;;5072722;28;20028;-42
2022/03/20 00:45:50;;;;;;;3.85;3.10;;;;;;;;;;5091408;28;20031;-41
2022/03/20 00:48:16;;;;;;;4.85;3.50;;;;;;;;;;5090730;28;20031;-42
2022/03/20 00:50:42;;;;;;;4.75;3.20;;;;;;;;;;5091574;28;20046;-43
2022/03/20 00:53:09;;;;;;;4.05;3.10;;;;;;;;;;5091018;28;20400;-49
2022/03/20 00:55:35;;;;;;;3.92;3.25;;;;;;;;;;5091365;28;20024;-43
2022/03/20 00:58:01;;;;;;;4.75;3.00;;;;;;;;;;5091270;28;20031;-42
2022/03/20 01:00:27;;;;;;;5.28;2.70;;;;;;;;;;5091064;28;20024;-41
2022/03/20 01:02:54;;;;;;;3.67;2.75;;;;;;;;;;5093628;28;20016;-44
2022/03/20 01:05:20;;;;;;;3.22;2.60;;;;;;;;;;5094431;28;20055;-43
2022/03/20 01:07:46;;;;;;;4.38;2.90;;;;;;;;;;5094932;28;20024;-42
2022/03/20 01:10:13;;;;;;;3.45;2.53;;;;;;;;;;5093920;28;20404;-43
2022/03/20 01:12:40;;;;;;;4.05;2.72;;;;;;;;;;5094965;28;20024;-43
2022/03/20 01:15:08;;;;;;;4.05;2.75;;;;;;;;;;5094516;28;20107;-42
2022/03/20 01:17:35;;;;;;;3.60;2.72;;;;;;;;;;5094408;28;20056;-42
2022/03/20 01:20:01;;;;;;;4.03;2.83;;;;;;;;;;5094563;28;20020;-44
2022/03/20 01:22:27;;;;;;;4.10;2.92;;;;;;;;;;5093712;28;20066;-41
2022/03/20 01:24:53;;;;;;;5.00;3.42;;;;;;;;;;5094744;28;20032;-43
2022/03/20 01:27:19;;;;;;;6.03;4.07;;;;;;;;;;5093881;28;20046;-45
2022/03/20 01:29:45;;;;;;;4.70;3.03;;;;;;;;;;5094549;28;20032;-43
2022/03/20 01:32:11;;;;;;;4.82;2.95;;;;;;;;;;5093951;28;20103;-50
2022/03/20 01:34:38;;;;;;;4.63;3.15;;;;;;;;;;5094237;28;20058;-43
2022/03/20 01:37:05;;;;;;;6.45;3.35;;;;;;;;;;5076633;28;20044;-42
2022/03/20 01:39:31;;;;;;;5.35;3.60;;;;;;;;;;5093399;28;20028;-43
2022/03/20 01:41:57;;;;;;;4.10;2.95;;;;;;;;;;5076115;28;20097;-43
2022/03/20 01:44:29;;;;;;;3.75;3.22;;;;;;;;;;5093359;28;20072;-41
2022/03/20 01:46:55;;;;;;;4.45;3.15;;;;;;;;;;5093962;28;20537;-42
2022/03/20 01:49:21;;;;;;;4.63;3.20;;;;;;;;;;5093691;28;20024;-42
2022/03/20 01:54:32;;;;;;;4.68;2.90;;;;;;;;;;5093062;28;20027;-43
2022/03/20 01:56:58;;;;;;;5.10;3.47;;;;;;;;;;5093983;28;20028;-42
2022/03/20 01:59:24;;;;;;;4.50;3.30;;;;;;;;;;5093002;28;20027;-42
2022/03/20 02:01:50;;;;;;;5.03;3.08;;;;;;;;;;5092652;28;20028;-50
2022/03/20 02:04:16;;;;;;;5.38;3.13;;;;;;;;;;5093182;28;20099;-47
2022/03/20 02:06:43;;;;;;;3.40;2.92;;;;;;;;;;5093909;28;20059;-42
2022/03/20 02:09:10;;;;;;;4.22;2.70;;;;;;;;;;5093429;28;20381;-50
2022/03/20 02:11:36;;;;;;;4.22;2.95;;;;;;;;;;5093335;28;20103;-44
2022/03/20 02:14:02;;;;;;;4.40;2.92;;;;;;;;;;5093085;28;20070;-47
2022/03/20 02:16:28;;;;;;;4.93;3.03;;;;;;;;;;5092798;28;20056;-44
2022/03/20 02:18:55;;;;;;;3.75;2.85;;;;;;;;;;5093607;28;20032;-42
2022/03/20 02:21:56;;;;;;;5.45;2.97;;;;;;;;;;5092667;28;20024;-45
2022/03/20 02:24:30;;;;;;;4.18;3.22;;;;;;;;;;5010593;28;20065;-45
2022/03/20 02:27:06;;;;;;;4.65;3.30;;;;;;;;;;5081041;28;20060;-42
2022/03/20 02:29:32;;;;;;;5.60;3.13;;;;;;;;;;5092382;28;20035;-42
2022/03/20 02:31:59;;;;;;;4.57;3.08;;;;;;;;;;5093199;28;20379;-42
2022/03/20 02:34:30;;;;;;;4.85;3.35;;;;;;;;;;5092571;28;20016;-43
2022/03/20 02:36:57;;;;;;;4.18;2.92;;;;;;;;;;5093262;28;20107;-42
2022/03/20 02:39:23;;;;;;;4.25;3.63;;;;;;;;;;5092178;28;20020;-42
2022/03/20 02:41:50;;;;;;;6.80;3.38;;;;;;;;;;5093211;28;20059;-43
2022/03/20 02:44:16;;;;;;;4.78;3.17;;;;;;;;;;5084914;28;20469;-43
2022/03/20 02:46:42;;;;;;;4.72;3.38;;;;;;;;;;5072740;28;20036;-42
2022/03/20 02:49:09;;;;;;;4.43;2.70;;;;;;;;;;5072879;28;20039;-42
2022/03/20 02:51:36;;;;;;;3.83;3.03;;;;;;;;;;5071686;28;20078;-44
2022/03/20 02:54:02;;;;;;;3.58;2.70;;;;;;;;;;5072688;28;20025;-42
2022/03/20 02:56:29;;;;;;;6.28;3.65;;;;;;;;;;5071693;28;20068;-42
2022/03/20 02:58:55;;;;;;;3.65;2.67;;;;;;;;;;5072537;28;20404;-46
2022/03/20 03:01:21;;;;;;;4.47;3.35;;;;;;;;;;5071670;28;20086;-44
2022/03/20 03:03:47;;;;;;;4.38;3.33;;;;;;;;;;5072633;28;20456;-41
2022/03/20 03:06:14;;;;;;;5.43;3.20;;;;;;;;;;5071935;28;20082;-49
2022/03/20 03:11:24;;;;;;;4.75;3.30;;;;;;;;;;5071139;28;20524;-43
2022/03/20 03:13:50;;;;;;;5.32;3.40;;;;;;;;;;5072367;28;20048;-46
2022/03/20 03:16:17;;;;;;;3.70;2.88;;;;;;;;;;5071134;28;20123;-43
2022/03/20 03:18:44;;;;;;;4.57;3.42;;;;;;;;;;5072215;28;20090;-42
2022/03/20 03:21:14;;;;;;;5.00;3.42;;;;;;;;;;5071771;28;20385;-41
2022/03/20 03:23:40;;;;;;;4.72;3.58;;;;;;;;;;5072333;28;20024;-46
2022/03/20 03:26:07;;;;;;;4.97;3.30;;;;;;;;;;5071335;28;20028;-47
2022/03/20 03:28:37;;;;;;;4.72;3.15;;;;;;;;;;5071344;28;20095;-43
2022/03/20 03:31:03;;;;;;;5.47;3.25;;;;;;;;;;5072146;28;20021;-41
2022/03/20 03:33:29;;;;;;;5.30;3.28;;;;;;;;;;5071241;28;20028;-42
2022/03/20 03:35:56;;;;;;;4.43;3.10;;;;;;;;;;5071841;28;20028;-43
2022/03/20 03:38:24;;;;;;;4.82;3.22;;;;;;;;;;5071106;28;20084;-44
2022/03/20 03:40:50;;;;;;;3.78;2.90;;;;;;;;;;5071950;28;20035;-43
2022/03/20 03:43:20;;;;;;;5.18;3.10;;;;;;;;;;5070697;28;20017;-49
2022/03/20 03:45:47;;;;;;;5.13;3.60;;;;;;;;;;5091189;28;20028;-42
2022/03/20 03:48:13;;;;;;;5.38;3.65;;;;;;;;;;5091973;28;20031;-51
2022/03/20 03:50:40;;;;;;;4.38;3.00;;;;;;;;;;5091945;28;20081;-41
2022/03/20 03:53:08;;;;;;;4.07;3.00;;;;;;;;;;5091858;28;20058;-42
2022/03/20 03:55:34;;;;;;;4.05;2.78;;;;;;;;;;5090795;28;20714;-41
2022/03/20 03:58:00;;;;;;;5.40;3.75;;;;;;;;;;5091585;28;20020;-41
2022/03/20 04:00:27;;;;;;;4.50;3.03;;;;;;;;;;5091139;28;20028;-41
2022/03/20 04:02:53;;;;;;;4.72;3.00;;;;;;;;;;5091604;28;20425;-43
2022/03/20 04:05:19;;;;;;;4.13;3.13;;;;;;;;;;5090992;28;20081;-42
2022/03/20 04:07:47;;;;;;;5.85;4.15;;;;;;;;;;5091479;28;20020;-41
2022/03/20 04:10:14;;;;;;;4.82;2.95;;;;;;;;;;5091890;28;20051;-46
2022/03/20 04:12:40;;;;;;;5.45;3.45;;;;;;;;;;5091253;28;20028;-41
2022/03/20 04:15:07;;;;;;;4.32;3.15;;;;;;;;;;5091890;28;20028;-42
2022/03/20 04:17:33;;;;;;;5.47;3.30;;;;;;;;;;5090466;28;20052;-42
2022/03/20 04:20:00;;;;;;;4.50;3.20;;;;;;;;;;5091821;28;20071;-42
2022/03/20 04:22:26;;;;;;;4.38;3.15;;;;;;;;;;5091124;28;20040;-43
2022/03/20 04:24:53;;;;;;;5.63;4.05;;;;;;;;;;5091857;28;20020;-43
2022/03/20 04:27:19;;;;;;;4.20;3.28;;;;;;;;;;5090758;28;20039;-42
2022/03/20 04:29:45;;;;;;;4.45;3.38;;;;;;;;;;5091549;28;20020;-41
2022/03/20 04:32:11;;;;;;;6.55;3.75;;;;;;;;;;5091744;28;20016;-41
2022/03/20 04:34:38;;;;;;;5.22;3.78;;;;;;;;;;5090735;28;20024;-42
2022/03/20 04:37:05;;;;;;;4.60;3.42;;;;;;;;;;5093281;28;20123;-42
2022/03/20 04:39:32;;;;;;;4.38;3.33;;;;;;;;;;5094573;28;20098;-42
2022/03/20 04:41:58;;;;;;;5.53;3.58;;;;;;;;;;5095653;28;20020;-42
2022/03/20 04:44:24;;;;;;;6.18;3.92;;;;;;;;;;5086159;28;20031;-42
2022/03/20 04:46:50;;;;;;;4.05;3.03;;;;;;;;;;5075107;28;20082;-42
2022/03/20 05:00:14;;;;;;;5.03;3.83;;;;;;;;;;5074616;28;20389;-42
2022/03/20 05:02:40;;;;;;;5.40;3.67;;;;;;;;;;5074272;28;20029;-42
2022/03/20 05:05:08;;;;;;;6.07;3.97;;;;;;;;;;5074767;28;20028;-42
2022/03/20 05:07:34;;;;;;;4.95;3.47;;;;;;;;;;5074063;28;20048;-42
2022/03/20 05:15:30;;;;;;;6.72;4.05;;;;;;;;;;5073976;28;20113;-42
2022/03/20 05:17:56;;;;;;;5.90;4.18;;;;;;;;;;5074562;28;20056;-42
2022/03/20 05:20:23;;;;;;;5.70;3.90;;;;;;;;;;5073528;28;20459;-42
2022/03/20 05:22:50;;;;;;;6.50;4.38;;;;;;;;;;5074553;28;20111;-42
2022/03/20 05:25:17;;;;;;;5.15;4.03;;;;;;;;;;5074394;28;20133;-46
2022/03/20 05:27:43;;;;;;;4.95;3.83;;;;;;;;;;5074177;28;20461;-42
2022/03/20 05:30:10;;;;;;;5.05;3.47;;;;;;;;;;5056424;28;20074;-43
2022/03/20 05:32:36;;;;;;;6.43;4.32;;;;;;;;;;5073568;28;20021;-41
2022/03/20 05:35:04;;;;;;;5.05;3.63;;;;;;;;;;5074264;28;20020;-42
2022/03/20 05:37:30;;;;;;;5.28;4.38;;;;;;;;;;5073384;28;20028;-42
2022/03/20 05:39:56;;;;;;;5.90;4.25;;;;;;;;;;5073854;28;20032;-43
2022/03/20 05:42:22;;;;;;;4.55;3.50;;;;;;;;;;5073727;28;20059;-44
2022/03/20 05:44:48;;;;;;;4.50;3.65;;;;;;;;;;5085422;28;20492;-45
2022/03/20 05:47:15;;;;;;;6.00;4.45;;;;;;;;;;5094274;28;20028;-42
2022/03/20 05:49:41;;;;;;;5.97;3.70;;;;;;;;;;5092640;28;20045;-42
2022/03/20 05:52:07;;;;;;;5.57;3.90;;;;;;;;;;5094108;28;20077;-42
2022/03/20 05:54:34;;;;;;;5.18;3.25;;;;;;;;;;5093403;28;20054;-42
2022/03/20 05:59:45;;;;;;;6.00;3.83;;;;;;;;;;5093246;28;20057;-44
2022/03/20 06:02:11;;;;;;;6.43;3.60;;;;;;;;;;5094044;28;20068;-42
2022/03/20 06:04:38;;;;;;;5.35;4.13;;;;;;;;;;5092938;28;20398;-41
2022/03/20 06:07:05;;;;;;;6.78;4.10;;;;;;;;;;5093469;28;20020;-44
2022/03/20 06:09:31;;;;;;;6.53;4.05;;;;;;;;;;5092697;28;20495;-42
2022/03/20 06:11:57;;;;;;;6.25;3.63;;;;;;;;;;5093312;28;20035;-42
2022/03/20 06:14:23;;;;;;;4.05;2.83;;;;;;;;;;5093420;28;20354;-43
2022/03/20 06:16:50;;;;;;;5.15;3.90;;;;;;;;;;5093928;28;20135;-41
2022/03/20 06:19:16;;;;;;;6.10;3.60;;;;;;;;;;5093370;28;20043;-46
2022/03/20 06:21:43;;;;;;;5.30;3.72;;;;;;;;;;5091721;28;20032;-42
2022/03/20 06:24:09;;;;;;;6.32;4.05;;;;;;;;;;5093391;28;20032;-43
2022/03/20 06:26:35;;;;;;;6.03;3.25;;;;;;;;;;5092894;28;20028;-43
2022/03/20 06:29:02;;;;;;;4.78;3.28;;;;;;;;;;5093289;28;20376;-42
2022/03/20 06:31:28;;;;;;;6.28;3.47;;;;;;;;;;5092714;28;20028;-41
2022/03/20 06:33:54;;;;;;;7.72;4.07;;;;;;;;;;5086521;28;20026;-41
2022/03/20 06:36:20;;;;;;;8.38;4.32;;;;;;;;;;5092940;28;20031;-50
2022/03/20 06:38:46;;;;;;;5.47;3.45;;;;;;;;;;5092739;28;20024;-41
2022/03/20 06:41:13;;;;;;;6.78;4.70;;;;;;;;;;5093172;28;20035;-42
2022/03/20 06:43:39;;;;;;;6.25;3.88;;;;;;;;;;5090416;28;20085;-42
2022/03/20 06:46:06;;;;;;;6.28;3.65;;;;;;;;;;5072445;28;20033;-44
2022/03/20 06:48:32;;;;;;;6.22;3.70;;;;;;;;;;5053736;28;20438;-42
2022/03/20 06:50:58;;;;;;;9.10;3.85;;;;;;;;;;5072261;28;20024;-43
2022/03/20 06:53:24;;;;;;;7.93;4.18;;;;;;;;;;5071555;28;20401;-49
2022/03/20 06:55:51;;;;;;;7.65;4.18;;;;;;;;;;5072163;28;20020;-42
2022/03/20 06:58:17;;;;;;;6.95;3.92;;;;;;;;;;5072620;28;20343;-43
2022/03/20 07:00:44;;;;;;;7.45;3.97;;;;;;;;;;5071623;28;20577;-43
2022/03/20 07:03:10;;;;;;;4.93;3.30;;;;;;;;;;5072426;28;20031;-43
2022/03/20 07:05:37;;;;;;;6.35;3.45;;;;;;;;;;5071706;28;20029;-43
2022/03/20 07:08:04;;;;;;;6.30;4.05;;;;;;;;;;5072133;28;20509;-42
2022/03/20 07:10:30;;;;;;;4.93;3.75;;;;;;;;;;5071635;28;20043;-42
2022/03/20 07:15:42;;;;;;;4.60;3.20;;;;;;;;;;5071085;28;20124;-43
2022/03/20 07:18:10;;;;;;;6.22;3.80;;;;;;;;;;5071962;28;20023;-42
2022/03/20 07:20:37;;;;;;;6.70;3.65;;;;;;;;;;5071050;28;20040;-43
2022/03/20 07:23:04;;;;;;;6.45;4.20;;;;;;;;;;5072080;28;20021;-41
2022/03/20 07:30:59;;;;;;;5.13;3.92;;;;;;;;;;5071720;28;20086;-42
2022/03/20 07:33:25;;;;;;;6.32;3.60;;;;;;;;;;5071026;28;20028;-49
2022/03/20 07:35:51;;;;;;;6.47;4.63;;;;;;;;;;5072269;28;20032;-45
2022/03/20 07:38:17;;;;;;;4.88;3.50;;;;;;;;;;5072076;28;20039;-43
2022/03/20 07:40:43;;;;;;;6.93;3.70;;;;;;;;;;5071133;28;20678;-44
2022/03/20 07:43:09;;;;;;;5.82;4.10;;;;;;;;;;5071887;28;20112;-49
2022/03/20 07:45:35;;;;;;;5.72;4.22;;;;;;;;;;5089033;28;20066;-43
2022/03/20 07:48:02;;;;;;;5.82;4.30;;;;;;;;;;5092045;28;20020;-43
2022/03/20 07:50:28;;;;;;;6.45;4.28;;;;;;;;;;5091243;28;20028;-44
2022/03/20 07:52:56;;;;;;;7.13;4.45;;;;;;;;;;5092208;28;20058;-44
2022/03/20 07:55:24;;;;;;;6.90;4.15;;;;;;;;;;5079427;28;20035;-49
2022/03/20 07:57:50;;;;;;;6.35;4.55;;;;;;;;;;5074329;28;20025;-45
2022/03/20 08:00:17;;;;;;;7.15;4.13;;;;;;;;;;5071692;28;20119;-43
2022/03/20 08:02:44;;;;;;;6.85;3.83;;;;;;;;;;5070929;28;20617;-43
2022/03/20 08:05:11;;;;;;;8.95;4.47;;;;;;;;;;5071705;28;20017;-50
2022/03/20 08:07:38;;;;;;;7.85;3.85;;;;;;;;;;5070913;28;20067;-43
2022/03/20 08:10:07;;;;;;;7.63;4.47;;;;;;;;;;5072106;28;20346;-44
2022/03/20 08:12:33;;;;;;;7.25;4.28;;;;;;;;;;5073294;28;20025;-42
2022/03/20 08:15:00;;;;;;;5.38;3.60;;;;;;;;;;5075418;28;20024;-43
2022/03/20 08:17:28;;;;;;;4.22;3.67;;;;;;;;;;5074953;28;20191;-47
2022/03/20 08:19:54;;;;;;;6.50;4.35;;;;;;;;;;5075105;28;20116;-45
2022/03/20 08:22:20;;;;;;;6.65;4.38;;;;;;;;;;5075345;28;20107;-44
2022/03/20 08:24:48;;;;;;;5.50;3.83;;;;;;;;;;5075081;28;20369;-43
2022/03/20 08:27:14;;;;;;;7.55;4.47;;;;;;;;;;5095532;28;20020;-43
2022/03/20 08:29:40;;;;;;;9.20;3.88;;;;;;;;;;5094816;28;20054;-43
2022/03/20 08:32:07;;;;;;;5.65;3.90;;;;;;;;;;5095559;28;20032;-42
2022/03/20 08:34:33;;;;;;;6.55;4.25;;;;;;;;;;5094580;28;20020;-44
2022/03/20 08:36:59;;;;;;;7.93;3.88;;;;;;;;;;5095187;28;20028;-43
2022/03/20 08:39:25;;;;;;;8.70;3.85;;;;;;;;;;5095348;28;20024;-52
2022/03/20 08:41:52;;;;;;;6.80;4.13;;;;;;;;;;5094790;28;20059;-41
2022/03/20 08:44:18;;;;;;;7.30;5.20;;;;;;;;;;5087960;28;20025;-43
2022/03/20 08:46:45;;;;;;;6.90;4.53;;;;;;;;;;5073575;28;20024;-42
2022/03/20 08:49:11;;;;;;;5.55;4.20;;;;;;;;;;5075111;28;20078;-42
2022/03/20 08:51:41;;;;;;;4.90;3.70;;;;;;;;;;5073726;28;20016;-43
2022/03/20 08:54:07;;;;;;;7.70;4.47;;;;;;;;;;5074963;28;20373;-41
2022/03/20 08:56:33;;;;;;;6.55;3.97;;;;;;;;;;5086881;28;20437;-41
2022/03/20 08:59:00;;;;;;;5.75;4.28;;;;;;;;;;5095102;28;20055;-41
2022/03/20 09:01:26;;;;;;;6.40;4.63;;;;;;;;;;5094460;28;20465;-46
2022/03/20 09:03:53;;;;;;;9.00;5.10;;;;;;;;;;5094588;28;20051;-43
2022/03/20 09:06:20;;;;;;;5.70;4.05;;;;;;;;;;5095087;28;20024;-43
2022/03/20 09:08:46;;;;;;;6.45;4.18;;;;;;;;;;5094067;28;20039;-41
2022/03/20 09:11:13;;;;;;;5.95;4.45;;;;;;;;;;5094975;28;20153;-41
2022/03/20 09:13:39;;;;;;;8.40;4.50;;;;;;;;;;5094005;28;20028;-42
2022/03/20 09:18:59;;;;;;;6.38;3.58;;;;;;;;;;5093630;28;20043;-49
2022/03/20 09:21:26;;;;;;;6.93;3.92;;;;;;;;;;5094730;28;20032;-43
2022/03/20 09:23:53;;;;;;;8.93;3.65;;;;;;;;;;5092570;28;20017;-43
2022/03/20 09:26:19;;;;;;;7.85;3.97;;;;;;;;;;5094121;28;20030;-41
2022/03/20 09:28:46;;;;;;;7.47;4.13;;;;;;;;;;5093393;28;20033;-44
2022/03/20 09:31:13;;;;;;;7.07;4.10;;;;;;;;;;5094502;28;20024;-45
2022/03/20 09:33:39;;;;;;;7.00;4.28;;;;;;;;;;5093489;28;20044;-43
2022/03/20 09:36:06;;;;;;;6.10;3.72;;;;;;;;;;5094437;28;20103;-41
2022/03/20 09:38:33;;;;;;;6.50;4.03;;;;;;;;;;5093110;28;20492;-46
2022/03/20 09:41:03;;;;;;;5.88;4.15;;;;;;;;;;5094221;28;20028;-45
2022/03/20 09:43:31;;;;;;;14.20;4.90;;;;;;;;;;5093431;28;20054;-48
2022/03/20 09:45:57;;;;;;;5.70;3.75;;;;;;;;;;5073969;28;20490;-45
2022/03/20 09:48:23;;;;;;;6.50;4.13;;;;;;;;;;5073338;28;20028;-45
2022/03/20 09:50:49;;;;;;;6.28;4.35;;;;;;;;;;5072640;28;20588;-43
2022/03/20 09:53:16;;;;;;;4.85;3.63;;;;;;;;;;5073586;28;20028;-43
2022/03/20 09:55:43;;;;;;;8.45;4.47;;;;;;;;;;5081413;28;20036;-43
2022/03/20 09:58:09;;;;;;;7.18;4.18;;;;;;;;;;5093907;28;20020;-43
2022/03/20 10:00:36;;;;;;;8.60;4.10;;;;;;;;;;5093158;28;20073;-44
2022/03/20 10:03:17;;;;;;;7.30;4.93;;;;;;;;;;5073898;28;20028;-43
2022/03/20 10:05:44;;;;;;;4.63;3.70;;;;;;;;;;5090268;28;20039;-44
2022/03/20 10:08:16;;;;;;;4.45;3.50;;;;;;;;;;5095197;28;20027;-42
2022/03/20 10:10:42;;;;;;;5.90;3.50;;;;;;;;;;5093229;28;20078;-46
2022/03/20 10:13:12;;;;;;;7.13;4.32;;;;;;;;;;5093413;28;20119;-47
2022/03/20 10:15:39;;;;;;;6.55;3.97;;;;;;;;;;5074435;28;20032;-45
2022/03/20 10:18:14;;;;;;;8.30;3.88;;;;;;;;;;5093862;28;20016;-45
2022/03/20 10:20:59;;;;;;;13.85;4.97;;;;;;;;;;5093490;28;20024;-43
2022/03/20 10:23:32;;;;;;;6.15;4.30;;;;;;;;;;5093442;28;20030;-43
2022/03/20 10:25:59;;;;;;;7.72;3.55;;;;;;;;;;5093323;28;20069;-43
2022/03/20 10:28:33;;;;;;;5.95;4.03;;;;;;;;;;5093300;28;20016;-44
2022/03/20 10:31:00;;;;;;;8.65;4.47;;;;;;;;;;5093542;28;20035;-42
2022/03/20 10:33:26;;;;;;;9.98;4.40;;;;;;;;;;5093317;28;20019;-45
2022/03/20 10:36:10;;;;;;;7.32;4.32;;;;;;;;;;5092000;28;20020;-43
2022/03/20 10:38:37;;;;;;;6.68;4.18;;;;;;;;;;5092206;28;20039;-44
2022/03/20 10:41:16;;;;;;;9.05;3.85;;;;;;;;;;5093171;28;20350;-44
2022/03/20 10:43:43;;;;;;;9.38;4.15;;;;;;;;;;5089766;28;20043;-43
2022/03/20 10:46:10;;;;;;;6.30;4.15;;;;;;;;;;5072962;28;20028;-40
2022/03/20 10:48:40;;;;;;;6.53;3.83;;;;;;;;;;5071804;28;20466;-42
2022/03/20 10:51:06;;;;;;;7.70;3.65;;;;;;;;;;5072536;28;20413;-41
2022/03/20 10:53:33;;;;;;;6.15;4.03;;;;;;;;;;5071434;28;20020;-48
2022/03/20 10:56:06;;;;;;;7.90;4.20;;;;;;;;;;5072064;28;20020;-42
2022/03/20 10:58:36;;;;;;;6.68;4.07;;;;;;;;;;5072081;28;20025;-50
2022/03/20 11:01:02;;;;;;;10.40;4.15;;;;;;;;;;5072536;28;20367;-41
2022/03/20 11:03:29;;;;;;;9.07;3.75;;;;;;;;;;5072153;28;20032;-43
2022/03/20 11:05:57;;;;;;;9.25;4.32;;;;;;;;;;5053392;28;20024;-42
2022/03/20 11:08:25;;;;;;;5.32;3.67;;;;;;;;;;5072421;28;20025;-42
2022/03/20 11:10:53;;;;;;;6.47;4.28;;;;;;;;;;5053746;28;20029;-42
2022/03/20 11:13:19;;;;;;;6.25;3.70;;;;;;;;;;5072256;28;20036;-43
2022/03/20 11:15:46;;;;;;;6.82;4.10;;;;;;;;;;5070830;28;20086;-42
2022/03/20 11:18:18;;;;;;;10.95;5.10;;;;;;;;;;5072063;28;20056;-42
2022/03/20 11:20:49;;;;;;;6.20;3.38;;;;;;;;;;5071474;28;20111;-42
2022/03/20 11:23:15;;;;;;;6.45;4.22;;;;;;;;;;5071947;28;20030;-42
2022/03/20 11:25:44;;;;;;;7.07;4.07;;;;;;;;;;5071388;28;20029;-42
2022/03/20 11:28:11;;;;;;;8.95;4.00;;;;;;;;;;5054376;28;20417;-42
2022/03/20 11:30:38;;;;;;;5.85;3.65;;;;;;;;;;5071328;28;20047;-44
2022/03/20 11:33:04;;;;;;;7.70;3.47;;;;;;;;;;5072098;28;20107;-42
2022/03/20 11:35:32;;;;;;;7.05;4.20;;;;;;;;;;5071841;28;20071;-42
2022/03/20 11:38:12;;;;;;;8.60;4.97;;;;;;;;;;5071514;28;20031;-42
2022/03/20 11:40:41;;;;;;;11.40;4.28;;;;;;;;;;5053324;28;20444;-41
2022/03/20 11:43:09;;;;;;;5.85;3.60;;;;;;;;;;5072026;28;20071;-42
2022/03/20 11:45:35;;;;;;;5.10;3.58;;;;;;;;;;5089000;28;20032;-50
2022/03/20 11:48:22;;;;;;;5.85;4.32;;;;;;;;;;5091714;28;20116;-42
2022/03/20 11:50:48;;;;;;;5.45;3.60;;;;;;;;;;5090950;28;20023;-41
2022/03/20 11:53:13;;;;;;;8.57;3.97;;;;;;;;;;5091682;28;20028;-41
2022/03/20 11:55:41;;;;;;;4.43;3.40;;;;;;;;;;5091219;28;20052;-42
2022/03/20 11:58:11;;;;;;;6.03;3.65;;;;;;;;;;5092079;28;20039;-43
2022/03/20 12:00:42;;;;;;;5.65;3.88;;;;;;;;;;5090810;28;20028;-46
2022/03/20 12:03:11;;;;;;;8.10;3.83;;;;;;;;;;5091900;28;20025;-41
2022/03/20 12:05:50;;;;;;;5.65;3.70;;;;;;;;;;5091099;28;20023;-48
2022/03/20 12:08:34;;;;;;;4.85;3.70;;;;;;;;;;5091943;28;20056;-42
2022/03/20 12:11:06;;;;;;;6.00;3.55;;;;;;;;;;5091359;28;20028;-42
2022/03/20 12:13:32;;;;;;;;;;;;;;;;;;5092127;28;20063;-42
2022/03/20 12:15:58;;;;;;;7.40;3.60;;;;;;;;;;5090629;28;20391;-42
2022/03/20 12:18:24;;;;;;;4.88;3.38;;;;;;;;;;5091831;28;20024;-42
2022/03/20 12:21:00;;;;;;;6.25;3.60;;;;;;;;;;5090970;28;20373;-41
2022/03/20 12:23:36;;;;;;;8.07;3.67;;;;;;;;;;5091773;28;20022;-44
2022/03/20 12:26:20;;;;;;;6.03;3.65;;;;;;;;;;5091257;28;20032;-42
2022/03/20 12:28:46;;;;;;;5.68;3.60;;;;;;;;;;5090984;28;20036;-44
2022/03/20 12:31:23;;;;;;;7.53;3.42;;;;;;;;;;5091430;28;20412;-41
2022/03/20 12:34:09;;;;;;;5.15;3.17;;;;;;;;;;5090917;28;20099;-42
2022/03/20 12:36:35;;;;;;;6.00;2.70;;;;;;;;;;5090945;28;20052;-50
2022/03/20 12:39:04;;;;;;;4.18;3.13;;;;;;;;;;5090974;28;20020;-42
2022/03/20 12:41:30;;;;;;;4.55;2.92;;;;;;;;;;5091244;28;20385;-42
2022/03/20 12:43:58;;;;;;;6.80;3.60;;;;;;;;;;5090720;28;20030;-43
2022/03/20 12:46:24;;;;;;;8.38;3.92;;;;;;;;;;5091445;28;20059;-42
2022/03/20 12:48:52;;;;;;;3.80;2.83;;;;;;;;;;5090677;28;20039;-44
2022/03/20 12:51:21;;;;;;;8.05;4.75;;;;;;;;;;5091421;28;20024;-42
2022/03/20 12:53:48;;;;;;;4.65;3.05;;;;;;;;;;5090503;28;20039;-41
2022/03/20 12:56:31;;;;;;;5.78;3.90;;;;;;;;;;5091401;28;20055;-44
2022/03/20 12:58:57;;;;;;;4.82;3.42;;;;;;;;;;5093662;28;20020;-43
2022/03/20 13:01:23;;;;;;;5.88;3.70;;;;;;;;;;5095024;28;20052;-44
2022/03/20 13:03:49;;;;;;;4.35;3.25;;;;;;;;;;5094377;28;20021;-44
2022/03/20 13:06:16;;;;;;;4.05;3.22;;;;;;;;;;5095048;28;20035;-45
2022/03/20 13:08:46;;;;;;;6.55;3.50;;;;;;;;;;5094153;28;20023;-43
2022/03/20 13:11:58;;;;;;;5.28;3.42;;;;;;;;;;5094913;28;20468;-42
2022/03/20 13:14:01;;;;;;;3.55;3.00;;;;;;;;;;5086435;28;20032;-42
2022/03/20 13:16:29;;;;;;;4.30;2.85;;;;;;;;;;5094826;28;20063;-43
2022/03/20 13:18:55;;;;;;;5.72;3.42;;;;;;;;;;5094088;28;20020;-45
2022/03/20 13:21:21;;;;;;;5.38;3.08;;;;;;;;;;5094971;28;20110;-43
2022/03/20 13:23:48;;;;;;;4.30;2.95;;;;;;;;;;5093784;28;20055;-42
2022/03/20 13:26:18;;;;;;;6.20;3.50;;;;;;;;;;5076504;28;20028;-43
2022/03/20 13:28:45;;;;;;;4.45;3.05;;;;;;;;;;5093939;28;20473;-42
2022/03/20 13:31:12;;;;;;;5.10;3.58;;;;;;;;;;5094434;28;20054;-44
2022/03/20 13:33:41;;;;;;;4.80;3.20;;;;;;;;;;5094220;28;20111;-50
2022/03/20 13:36:08;;;;;;;7.13;2.95;;;;;;;;;;5094324;28;20016;-44
2022/03/20 13:38:38;;;;;;;4.53;3.15;;;;;;;;;;5094244;28;20020;-41
2022/03/20 13:41:05;;;;;;;6.03;3.45;;;;;;;;;;5094107;28;20027;-45
2022/03/20 13:43:31;;;;;;;4.50;3.30;;;;;;;;;;5093628;28;20530;-43
2022/03/20 13:46:09;;;;;;;4.80;3.13;;;;;;;;;;5073628;28;20579;-43
2022/03/20 13:48:36;;;;;;;4.68;2.97;;;;;;;;;;5074310;28;20032;-44
2022/03/20 13:51:04;;;;;;;5.78;3.58;;;;;;;;;;5073714;28;20024;-41
2022/03/20 13:53:30;;;;;;;4.13;3.03;;;;;;;;;;5073943;28;20021;-43
2022/03/20 13:55:56;;;;;;;6.10;3.15;;;;;;;;;;5073172;28;20033;-41
2022/03/20 13:58:22;;;;;;;4.20;2.85;;;;;;;;;;5073653;28;20043;-41
2022/03/20 14:00:58;;;;;;;4.15;3.13;;;;;;;;;;5072920;28;20029;-41
2022/03/20 14:03:30;;;;;;;4.82;3.33;;;;;;;;;;5073187;28;20023;-41
2022/03/20 14:05:57;;;;;;;4.00;2.97;;;;;;;;;;5073024;28;20117;-41
2022/03/20 14:08:24;;;;;;;6.60;3.70;;;;;;;;;;5073763;28;20031;-42
2022/03/20 14:10:54;;;;;;;4.95;3.42;;;;;;;;;;5071933;28;20042;-45
2022/03/20 14:13:21;;;;;;;4.53;3.13;;;;;;;;;;5073402;28;20111;-43
2022/03/20 14:16:10;;;;;;;5.40;3.22;;;;;;;;;;5072220;28;20499;-44
2022/03/20 14:18:55;;;;;;;4.10;2.92;;;;;;;;;;5073287;28;20107;-44
2022/03/20 14:21:22;;;;;;;4.00;2.92;;;;;;;;;;5073165;28;20554;-42
2022/03/20 14:24:06;;;;;;;4.28;3.00;;;;;;;;;;5072695;28;20359;-41
2022/03/20 14:26:45;;;;;;;5.28;2.88;;;;;;;;;;5073343;28;20024;-41
2022/03/20 14:39:26;;;;;;;4.00;3.08;;;;;;;;;;5073492;28;20116;-41
2022/03/20 14:40:38;;;;;;;12.38;4.22;;;;;;;;;;5072412;28;20039;-45
2022/03/20 14:43:11;;;;;;;8.75;5.35;;;;;;;;;;5072127;28;20021;-44
2022/03/20 14:45:39;;;;;;;12.82;6.85;;;;;;;;;;5090936;28;20024;-45
2022/03/20 14:48:09;;;;;;;13.25;7.10;;;;;;;;;;5074592;28;20017;-46
2022/03/20 14:50:35;;;;;;;12.07;7.20;;;;;;;;;;5093043;28;20485;-45
2022/03/20 14:53:01;;;;;;;14.15;7.85;;;;;;;;;;5057499;28;20725;-42
2022/03/20 14:55:27;;;;;;;15.07;8.52;;;;;;;;;;5092974;28;20458;-45
2022/03/20 14:57:53;;;;;;;16.85;9.02;;;;;;;;;;5091760;28;20031;-41
2022/03/20 15:00:19;;;;;;;12.73;8.55;;;;;;;;;;5092830;28;20028;-45
2022/03/20 15:02:48;;;;;;;14.73;8.23;;;;;;;;;;5092003;28;20028;-49
2022/03/20 15:05:14;;;;;;;14.27;8.00;;;;;;;;;;5092964;28;20020;-46
2022/03/20 15:11:23;;;;;;;14.07;8.68;;;;;;;;;;5092472;28;20016;-44
2022/03/20 15:13:10;;;;;;;16.45;7.57;;;;;;;;;;5092341;28;20077;-45
2022/03/20 15:15:36;;;;;;;11.18;7.50;;;;;;;;;;5092281;28;20028;-44
2022/03/20 15:18:03;;;;;;;11.73;7.18;;;;;;;;;;5091547;28;21009;-45
2022/03/20 15:20:29;;;;;;;13.07;8.43;;;;;;;;;;5092098;28;20032;-46
2022/03/20 15:22:57;;;;;;;11.40;7.80;;;;;;;;;;5091212;28;20142;-44
2022/03/20 15:25:23;;;;;;;13.48;9.40;;;;;;;;;;5092250;28;20488;-43
2022/03/20 15:27:49;;;;;;;12.95;7.93;;;;;;;;;;5073227;28;20028;-44
2022/03/20 15:30:16;;;;;;;12.30;7.32;;;;;;;;;;5093119;28;20031;-46
2022/03/20 15:32:42;;;;;;;12.60;7.72;;;;;;;;;;5092643;28;20020;-43
2022/03/20 15:35:09;;;;;;;13.85;7.85;;;;;;;;;;5091780;28;20035;-43